OYSN/SAH METAR and TAF weather

Enter ICAO airport designator
Station Type Date Time Source
OYSN METAR 2017/02/08 13:00 UTC NOAA

OYSN 081300Z 03008KT 9999 FEW030 25/M05 Q1022


Station Type Date Time Source
OYSN Decoded METAR 2017/02/08 13:00 UTC NOAA

Sana'A, Yemen (OYSN) 15-31N 044-11E 2190M
Feb 08, 2017 - 08:00 AM EST / 2017.02.08 1300 UTC
Wind: from the NNE (030 degrees) at 9 MPH (8 KT):0
Visibility: greater than 7 mile(s):0
Sky conditions: mostly clear
Temperature: 77 F (25 C)
Dew Point: 23 F (-5 C)
Relative Humidity: 13%
Pressure (altimeter): 30.18 in. Hg (1022 hPa)
ob: OYSN 081300Z 03008KT 9999 FEW030 25/M05 Q1022
cycle: 13

Station Type Date Time Source
OYSN TAF 2015/03/25 12:09 UTC NOAA

TAF OYSN 250822Z 2512/2618 07010KT 8000 SCT030
TEMPO 2512/2518 28010G20KT 5000 TSRA FEW025CB BKN030
BECMG 2520/2522 VRB03KT
BECMG 2606/2608 07010KT
TEMPO 2610/2618 TSRA FEW025CB BKN030


Example: see airport list